createdAt,value
2023-04-27T00:00:01.164Z,100737.81
2023-04-27T00:02:27.929Z,100748.84
2023-04-27T00:04:57.205Z,100734.81
2023-04-27T00:07:23.898Z,100740.69
2023-04-27T00:09:51.855Z,100732.16
2023-04-27T00:12:18.261Z,100729.53
2023-04-27T00:14:44.827Z,100729.50
2023-04-27T00:17:11.302Z,100728.56
2023-04-27T00:19:37.792Z,100725.81
2023-04-27T00:22:04.302Z,100725.00
2023-04-27T00:24:30.935Z,100720.75
2023-04-27T00:26:57.748Z,100724.28
2023-04-27T00:29:24.461Z,100718.97
2023-04-27T00:31:50.971Z,100725.28
2023-04-27T00:34:17.526Z,100728.84
2023-04-27T00:36:44.001Z,100713.03
2023-04-27T00:39:10.529Z,100720.31
2023-04-27T00:41:42.049Z,100718.22
2023-04-27T00:44:08.649Z,100711.47
2023-04-27T00:46:35.382Z,100717.97
2023-04-27T00:49:04.922Z,100716.16
2023-04-27T00:51:32.177Z,100712.72
2023-04-27T00:53:59.886Z,100712.31
2023-04-27T00:56:26.340Z,100718.66
2023-04-27T00:58:55.700Z,100719.56
2023-04-27T01:01:24.407Z,100726.47
2023-04-27T01:03:53.236Z,100726.44
2023-04-27T01:06:19.884Z,100728.63
2023-04-27T01:08:48.531Z,100726.25
2023-04-27T01:11:14.875Z,100728.47
2023-04-27T01:13:41.459Z,100736.25
2023-04-27T01:16:07.921Z,100736.06
2023-04-27T01:18:35.043Z,100736.22
2023-04-27T01:21:01.576Z,100744.41
2023-04-27T01:23:32.799Z,100733.97
2023-04-27T01:25:59.323Z,100738.06
2023-04-27T01:28:27.947Z,100739.91
2023-04-27T01:30:54.461Z,100733.81
2023-04-27T01:33:24.109Z,100734.31
2023-04-27T01:35:51.027Z,100730.91
2023-04-27T01:38:18.007Z,100734.00
2023-04-27T01:40:44.465Z,100730.59
2023-04-27T01:43:11.514Z,100731.34
2023-04-27T01:45:37.962Z,100736.69
2023-04-27T01:48:04.705Z,100731.72
2023-04-27T01:50:31.280Z,100729.91
2023-04-27T01:53:00.006Z,100729.75
2023-04-27T01:58:15.329Z,100732.94
2023-04-27T02:00:41.760Z,100722.06
2023-04-27T02:05:54.695Z,100727.66
2023-04-27T02:08:21.228Z,100732.31
2023-04-27T02:10:47.633Z,100726.56
2023-04-27T02:13:14.438Z,100733.03
2023-04-27T02:15:41.012Z,100730.75
2023-04-27T02:18:07.493Z,100737.94
2023-04-27T02:20:34.064Z,100727.94
2023-04-27T02:23:01.770Z,100734.56
2023-04-27T02:25:30.840Z,100739.16
2023-04-27T02:28:34.909Z,100729.84
2023-04-27T02:31:39.417Z,100739.50
2023-04-27T02:34:44.634Z,100742.50
2023-04-27T02:37:11.138Z,100743.09
2023-04-27T02:39:37.517Z,100738.47
2023-04-27T02:42:43.838Z,100748.53
2023-04-27T02:45:10.531Z,100751.13
2023-04-27T02:47:55.710Z,100746.75
2023-04-27T02:50:22.190Z,100755.00
2023-04-27T02:52:48.570Z,100755.13
2023-04-27T02:55:16.406Z,100754.88
2023-04-27T02:57:43.174Z,100750.34
2023-04-27T03:00:10.979Z,100749.94
2023-04-27T03:03:14.993Z,100751.47
2023-04-27T03:06:00.351Z,100755.44
2023-04-27T03:08:26.731Z,100748.69
2023-04-27T03:11:30.839Z,100750.38
2023-04-27T03:14:54.085Z,100741.13
2023-04-27T03:17:58.110Z,100743.63
2023-04-27T03:20:43.426Z,100746.25
2023-04-27T03:23:09.820Z,100751.75
2023-04-27T03:25:36.369Z,100754.50
2023-04-27T03:28:03.077Z,100756.84
2023-04-27T03:30:29.529Z,100753.53
2023-04-27T03:32:56.488Z,100760.84
2023-04-27T03:35:23.028Z,100759.72
2023-04-27T03:37:49.483Z,100762.75
2023-04-27T03:40:15.996Z,100756.28
2023-04-27T03:42:43.766Z,100759.19
2023-04-27T03:45:12.151Z,100751.22
2023-04-27T03:47:38.860Z,100737.69
2023-04-27T03:50:05.648Z,100737.97
2023-04-27T03:52:34.312Z,100734.81
2023-04-27T03:55:00.888Z,100750.75
2023-04-27T03:57:29.523Z,100752.97
2023-04-27T03:59:58.716Z,100744.53
2023-04-27T04:02:25.320Z,100750.13
2023-04-27T04:04:51.869Z,100742.81
2023-04-27T04:07:18.310Z,100738.81
2023-04-27T04:09:44.888Z,100748.59
2023-04-27T04:12:11.307Z,100750.22
2023-04-27T04:14:37.816Z,100750.22
2023-04-27T04:17:04.222Z,100757.53
2023-04-27T04:19:30.793Z,100751.34
2023-04-27T04:21:57.809Z,100747.22
2023-04-27T04:24:24.310Z,100743.75
2023-04-27T04:26:50.785Z,100751.47
2023-04-27T04:29:17.213Z,100757.53
2023-04-27T04:31:43.689Z,100761.22
2023-04-27T04:34:11.031Z,100758.88
2023-04-27T04:36:40.539Z,100756.41
2023-04-27T04:39:07.193Z,100754.47
2023-04-27T04:41:33.632Z,100764.38
2023-04-27T04:44:00.611Z,100768.66
2023-04-27T04:46:27.112Z,100763.56
2023-04-27T04:48:54.697Z,100767.00
2023-04-27T04:51:21.371Z,100767.69
2023-04-27T04:53:47.756Z,100772.34
2023-04-27T04:56:15.015Z,100766.00
2023-04-27T04:58:44.023Z,100770.63
2023-04-27T05:01:10.778Z,100775.06
2023-04-27T05:03:37.439Z,100772.84
2023-04-27T05:06:04.138Z,100774.47
2023-04-27T05:08:30.782Z,100774.69
2023-04-27T05:10:57.265Z,100776.38
2023-04-27T05:13:24.814Z,100769.97
2023-04-27T05:15:56.178Z,100769.97
2023-04-27T05:18:23.520Z,100768.13
2023-04-27T05:20:49.926Z,100773.97
2023-04-27T05:23:16.629Z,100778.88
2023-04-27T05:25:43.159Z,100779.47
2023-04-27T05:28:12.769Z,100779.06
2023-04-27T05:30:39.323Z,100783.56
2023-04-27T05:33:06.400Z,100796.16
2023-04-27T05:35:33.492Z,100785.94
2023-04-27T05:38:00.342Z,100801.38
2023-04-27T05:40:27.506Z,100790.19
2023-04-27T05:42:54.141Z,100798.28
2023-04-27T05:45:21.660Z,100799.53
2023-04-27T05:47:48.239Z,100791.22
2023-04-27T05:50:14.626Z,100798.88
2023-04-27T05:52:41.182Z,100801.94
2023-04-27T05:55:08.318Z,100800.81
2023-04-27T05:57:37.846Z,100800.75
2023-04-27T06:00:10.516Z,100798.41
2023-04-27T06:02:36.993Z,100806.59
2023-04-27T06:05:07.052Z,100808.16
2023-04-27T06:07:34.182Z,100806.59
2023-04-27T06:10:03.256Z,100809.63
2023-04-27T06:12:32.449Z,100804.09
2023-04-27T06:14:58.899Z,100811.03
2023-04-27T06:17:28.544Z,100813.66
2023-04-27T06:19:54.918Z,100815.97
2023-04-27T06:22:21.383Z,100814.34
2023-04-27T06:24:47.828Z,100814.47
2023-04-27T06:27:14.224Z,100817.63
2023-04-27T06:29:45.887Z,100822.94
2023-04-27T06:32:12.291Z,100818.56
2023-04-27T06:34:38.681Z,100830.59
2023-04-27T06:37:09.717Z,100827.91
2023-04-27T06:39:36.923Z,100834.19
2023-04-27T06:42:05.959Z,100838.69
2023-04-27T06:44:37.641Z,100832.03
2023-04-27T06:47:06.557Z,100835.38
2023-04-27T06:49:33.007Z,100833.56
2023-04-27T06:52:02.007Z,100836.22
2023-04-27T06:54:30.679Z,100835.41
2023-04-27T06:56:57.044Z,100840.81
2023-04-27T06:59:26.543Z,100844.78
2023-04-27T07:01:55.536Z,100841.69
2023-04-27T07:04:22.164Z,100837.88
2023-04-27T07:06:48.855Z,100845.47
2023-04-27T07:09:26.553Z,100840.22
2023-04-27T07:11:54.102Z,100836.69
2023-04-27T07:14:20.922Z,100830.03
2023-04-27T07:16:47.334Z,100846.16
2023-04-27T07:19:16.698Z,100846.81
2023-04-27T07:21:45.639Z,100841.53
2023-04-27T07:24:12.117Z,100834.31
2023-04-27T07:26:41.479Z,100840.22
2023-04-27T07:29:25.439Z,100843.13
2023-04-27T07:31:55.208Z,100837.25
2023-04-27T07:34:21.861Z,100838.41
2023-04-27T07:36:48.213Z,100843.00
2023-04-27T07:39:17.200Z,100839.66
2023-04-27T07:41:43.677Z,100839.25
2023-04-27T07:44:10.316Z,100841.03
2023-04-27T07:46:38.494Z,100842.31
2023-04-27T07:49:06.667Z,100839.00
2023-04-27T07:51:34.567Z,100834.97
2023-04-27T07:54:02.919Z,100834.97
2023-04-27T07:56:29.415Z,100825.16
2023-04-27T07:58:56.159Z,100839.19
2023-04-27T08:01:23.156Z,100833.31
2023-04-27T08:03:51.954Z,100833.94
2023-04-27T08:06:19.761Z,100838.63
2023-04-27T08:08:48.005Z,100831.63
2023-04-27T08:11:14.409Z,100825.16
2023-04-27T08:13:41.280Z,100827.81
2023-04-27T08:16:07.824Z,100826.72
2023-04-27T08:18:34.503Z,100827.63
2023-04-27T08:21:01.006Z,100822.34
2023-04-27T08:23:28.419Z,100820.13
2023-04-27T08:25:55.085Z,100822.22
2023-04-27T08:28:23.865Z,100811.53
2023-04-27T08:30:51.747Z,100815.31
2023-04-27T08:33:18.145Z,100813.59
2023-04-27T08:35:44.530Z,100812.88
2023-04-27T08:38:10.954Z,100808.88
2023-04-27T08:40:42.828Z,100812.38
2023-04-27T08:43:09.324Z,100800.13
2023-04-27T08:45:36.017Z,100800.78
2023-04-27T08:48:02.535Z,100808.13
2023-04-27T08:50:29.864Z,100802.41
2023-04-27T08:52:56.400Z,100808.06
2023-04-27T08:55:23.586Z,100805.22
2023-04-27T08:57:58.370Z,100805.84
2023-04-27T09:00:26.225Z,100803.13
2023-04-27T09:02:53.008Z,100804.16
2023-04-27T09:05:24.066Z,100796.59
2023-04-27T09:08:00.829Z,100802.72
2023-04-27T09:10:29.851Z,100808.81
2023-04-27T09:13:00.953Z,100809.25
2023-04-27T09:15:28.812Z,100802.91
2023-04-27T09:17:56.786Z,100801.06
2023-04-27T09:20:23.763Z,100808.97
2023-04-27T09:22:55.099Z,100811.72
2023-04-27T09:25:30.187Z,100802.78
2023-04-27T09:27:58.483Z,100797.81
2023-04-27T09:30:26.153Z,100798.03
2023-04-27T09:33:04.007Z,100795.34
2023-04-27T09:35:32.788Z,100789.59
2023-04-27T09:38:00.775Z,100783.25
2023-04-27T09:40:29.799Z,100784.09
2023-04-27T09:43:01.013Z,100782.78
2023-04-27T09:45:27.562Z,100774.81
2023-04-27T09:47:54.556Z,100777.00
2023-04-27T09:50:21.997Z,100776.25
2023-04-27T09:52:50.912Z,100773.75
2023-04-27T09:55:29.575Z,100776.44
2023-04-27T09:58:09.396Z,100770.09
2023-04-27T10:00:47.969Z,100765.28
2023-04-27T10:03:28.212Z,100771.88
2023-04-27T10:06:51.508Z,100763.06
2023-04-27T10:09:24.235Z,100772.34
2023-04-27T10:11:52.464Z,100766.03
2023-04-27T10:14:21.375Z,100763.09
2023-04-27T10:16:53.231Z,100765.91
2023-04-27T10:19:21.205Z,100768.56
2023-04-27T10:22:09.314Z,100771.38
2023-04-27T10:24:36.908Z,100763.28
2023-04-27T10:27:12.645Z,100760.66
2023-04-27T10:29:43.285Z,100764.22
2023-04-27T10:32:23.224Z,100763.41
2023-04-27T10:35:04.252Z,100757.06
2023-04-27T10:37:42.129Z,100764.34
2023-04-27T10:40:17.602Z,100762.28
2023-04-27T10:42:49.542Z,100760.78
2023-04-27T10:45:30.939Z,100758.50
2023-04-27T10:48:01.276Z,100755.88
2023-04-27T10:50:28.142Z,100761.28
2023-04-27T10:52:54.622Z,100755.16
2023-04-27T10:55:22.834Z,100750.31
2023-04-27T10:57:51.759Z,100748.66
2023-04-27T11:00:25.405Z,100745.63
2023-04-27T11:03:09.392Z,100742.72
2023-04-27T11:05:36.915Z,100742.75
2023-04-27T11:08:11.077Z,100739.97
2023-04-27T11:10:43.822Z,100733.81
2023-04-27T11:13:15.231Z,100731.06
2023-04-27T11:15:54.495Z,100734.34
2023-04-27T11:18:23.662Z,100742.91
2023-04-27T11:20:52.353Z,100730.78
2023-04-27T11:23:24.532Z,100734.28
2023-04-27T11:25:51.220Z,100725.44
2023-04-27T11:28:21.977Z,100728.25
2023-04-27T11:30:56.619Z,100729.13
2023-04-27T11:33:22.996Z,100719.03
2023-04-27T11:35:49.398Z,100719.28
2023-04-27T11:38:17.664Z,100720.34
2023-04-27T11:40:58.736Z,100723.44
2023-04-27T11:43:28.556Z,100719.38
2023-04-27T11:45:58.853Z,100708.47
2023-04-27T11:48:31.623Z,100712.72
2023-04-27T11:51:01.848Z,100711.91
2023-04-27T11:53:38.334Z,100710.91
2023-04-27T11:56:07.868Z,100701.84
2023-04-27T11:58:36.158Z,100702.75
2023-04-27T12:01:04.292Z,100699.03
2023-04-27T12:03:33.970Z,100697.09
2023-04-27T12:06:16.110Z,100694.03
2023-04-27T12:08:47.408Z,100692.34
2023-04-27T12:11:14.000Z,100687.84
2023-04-27T12:13:40.775Z,100677.78
2023-04-27T12:16:07.907Z,100685.09
2023-04-27T12:18:34.313Z,100686.72
2023-04-27T12:21:02.924Z,100685.47
2023-04-27T12:23:32.886Z,100676.78
2023-04-27T12:25:59.535Z,100672.72
2023-04-27T12:28:26.178Z,100672.63
2023-04-27T12:30:52.748Z,100676.34
2023-04-27T12:33:19.290Z,100670.41
2023-04-27T12:35:45.734Z,100666.56
2023-04-27T12:38:14.536Z,100663.19
2023-04-27T12:40:40.922Z,100662.03
2023-04-27T12:43:09.316Z,100658.50
2023-04-27T12:45:35.728Z,100649.41
2023-04-27T12:48:04.875Z,100656.31
2023-04-27T12:50:38.084Z,100657.50
2023-04-27T12:53:04.551Z,100656.72
2023-04-27T12:55:33.893Z,100658.09
2023-04-27T12:58:01.434Z,100659.63
2023-04-27T13:00:29.366Z,100655.28
2023-04-27T13:02:56.865Z,100651.31
2023-04-27T13:05:26.436Z,100653.72
2023-04-27T13:07:53.008Z,100658.78
2023-04-27T13:10:19.384Z,100653.31
2023-04-27T13:12:48.702Z,100647.56
2023-04-27T13:15:15.079Z,100646.25
2023-04-27T13:17:43.728Z,100635.69
2023-04-27T13:20:11.706Z,100639.16
2023-04-27T13:22:40.527Z,100638.38
2023-04-27T13:25:07.266Z,100642.09
2023-04-27T13:27:33.775Z,100651.28
2023-04-27T13:30:00.361Z,100639.66
2023-04-27T13:32:28.090Z,100638.38
2023-04-27T13:34:54.527Z,100643.16
2023-04-27T13:37:21.850Z,100638.75
2023-04-27T13:39:48.219Z,100640.47
2023-04-27T13:42:14.646Z,100633.75
2023-04-27T13:44:41.371Z,100632.00
2023-04-27T13:47:08.074Z,100629.06
2023-04-27T13:49:34.699Z,100630.88
2023-04-27T13:52:01.594Z,100640.91
2023-04-27T13:54:28.582Z,100625.72
2023-04-27T13:56:56.218Z,100636.19
2023-04-27T13:59:22.733Z,100631.75
2023-04-27T14:01:51.396Z,100634.69
2023-04-27T14:04:19.073Z,100640.00
2023-04-27T14:06:45.733Z,100635.81
2023-04-27T14:09:12.353Z,100637.50
2023-04-27T14:11:52.360Z,100626.94
2023-04-27T14:14:24.927Z,100639.03
2023-04-27T14:16:54.612Z,100638.34
2023-04-27T14:19:23.316Z,100627.63
2023-04-27T14:21:50.156Z,100636.69
2023-04-27T14:24:16.683Z,100629.13
2023-04-27T14:26:47.465Z,100631.66
2023-04-27T14:29:14.331Z,100630.94
2023-04-27T14:31:41.661Z,100632.75
2023-04-27T14:34:08.441Z,100632.19
2023-04-27T14:36:34.863Z,100633.81
2023-04-27T14:39:05.102Z,100630.75
2023-04-27T14:41:31.625Z,100626.22
2023-04-27T14:43:58.091Z,100634.09
2023-04-27T14:46:24.559Z,100621.97
2023-04-27T14:48:51.285Z,100624.34
2023-04-27T14:51:17.880Z,100618.34
2023-04-27T14:53:44.509Z,100628.50
2023-04-27T14:56:11.665Z,100624.94
2023-04-27T14:58:38.722Z,100616.19
2023-04-27T15:01:06.099Z,100622.94
2023-04-27T15:03:33.198Z,100624.63
2023-04-27T15:06:00.780Z,100621.22
2023-04-27T15:08:31.310Z,100625.53
2023-04-27T15:10:59.968Z,100623.66
2023-04-27T15:13:27.479Z,100627.09
2023-04-27T15:16:04.854Z,100628.97
2023-04-27T15:18:31.974Z,100620.78
2023-04-27T15:20:59.629Z,100615.13
2023-04-27T15:23:27.857Z,100618.69
2023-04-27T15:25:58.337Z,100615.44
2023-04-27T15:28:25.120Z,100608.97
2023-04-27T15:30:54.869Z,100602.69
2023-04-27T15:33:21.275Z,100608.38
2023-04-27T15:35:47.768Z,100604.03
2023-04-27T15:38:15.102Z,100596.19
2023-04-27T15:40:44.854Z,100590.56
2023-04-27T15:43:16.395Z,100582.78
2023-04-27T15:45:44.037Z,100579.25
2023-04-27T15:48:12.077Z,100578.97
2023-04-27T15:50:41.049Z,100568.44
2023-04-27T15:53:07.435Z,100576.25
2023-04-27T15:55:33.834Z,100572.41
2023-04-27T15:58:03.390Z,100562.78
2023-04-27T16:00:31.968Z,100569.34
2023-04-27T16:03:00.745Z,100558.75
2023-04-27T16:05:27.801Z,100551.66
2023-04-27T16:07:56.647Z,100549.91
2023-04-27T16:10:25.613Z,100548.81
2023-04-27T16:12:52.108Z,100553.16
2023-04-27T16:15:18.600Z,100544.41
2023-04-27T16:17:47.589Z,100543.75
2023-04-27T16:20:14.178Z,100537.44
2023-04-27T16:22:40.652Z,100533.72
2023-04-27T16:25:10.664Z,100532.75
2023-04-27T16:27:39.094Z,100542.94
2023-04-27T16:30:06.880Z,100532.16
2023-04-27T16:32:35.382Z,100533.19
2023-04-27T16:35:02.338Z,100539.75
2023-04-27T16:37:28.822Z,100534.88
2023-04-27T16:39:59.092Z,100527.16
2023-04-27T16:42:25.724Z,100530.78
2023-04-27T16:44:52.217Z,100527.75
2023-04-27T16:47:18.595Z,100531.72
2023-04-27T16:49:45.041Z,100534.19
2023-04-27T16:52:11.934Z,100533.19
2023-04-27T16:54:38.418Z,100531.63
2023-04-27T16:57:04.903Z,100537.81
2023-04-27T16:59:31.441Z,100534.41
2023-04-27T17:02:01.740Z,100531.72
2023-04-27T17:04:40.031Z,100531.78
2023-04-27T17:07:09.307Z,100525.63
2023-04-27T17:09:36.829Z,100533.00
2023-04-27T17:12:10.962Z,100532.97
2023-04-27T17:14:38.465Z,100539.31
2023-04-27T17:17:06.255Z,100534.84
2023-04-27T17:19:32.745Z,100528.78
2023-04-27T17:22:01.459Z,100532.03
2023-04-27T17:24:28.094Z,100528.19
2023-04-27T17:26:54.988Z,100524.31
2023-04-27T17:29:21.738Z,100536.19
2023-04-27T17:31:50.026Z,100534.59
2023-04-27T17:34:16.451Z,100520.13
2023-04-27T17:36:42.909Z,100516.81
2023-04-27T17:39:12.769Z,100511.94
2023-04-27T17:41:39.759Z,100514.81
2023-04-27T17:44:06.369Z,100517.88
2023-04-27T17:46:33.110Z,100518.69
2023-04-27T17:49:02.302Z,100522.97
2023-04-27T17:51:28.723Z,100527.69
2023-04-27T17:53:55.551Z,100529.94
2023-04-27T17:56:22.554Z,100529.31
2023-04-27T17:58:48.977Z,100527.50
2023-04-27T18:01:15.510Z,100524.03
2023-04-27T18:03:42.356Z,100523.63
2023-04-27T18:06:09.178Z,100523.00
2023-04-27T18:08:35.645Z,100529.94
2023-04-27T18:11:02.164Z,100530.56
2023-04-27T18:13:28.653Z,100525.03
2023-04-27T18:15:55.035Z,100527.28
2023-04-27T18:18:25.356Z,100524.66
2023-04-27T18:20:52.248Z,100517.72
2023-04-27T18:23:18.720Z,100521.56
2023-04-27T18:25:45.364Z,100524.19
2023-04-27T18:28:11.839Z,100518.50
2023-04-27T18:30:40.665Z,100513.97
2023-04-27T18:33:07.454Z,100513.97
2023-04-27T18:35:34.188Z,100512.06
2023-04-27T18:38:00.783Z,100521.63
2023-04-27T18:40:27.239Z,100524.22
2023-04-27T18:42:55.966Z,100523.56
2023-04-27T18:45:22.633Z,100530.06
2023-04-27T18:47:49.289Z,100535.47
2023-04-27T18:50:17.612Z,100527.97
2023-04-27T18:52:44.013Z,100534.66
2023-04-27T18:55:13.949Z,100531.91
2023-04-27T18:57:40.334Z,100526.31
2023-04-27T19:00:14.015Z,100526.56
2023-04-27T19:02:40.686Z,100522.22
2023-04-27T19:05:13.445Z,100525.22
2023-04-27T19:07:44.445Z,100527.25
2023-04-27T19:10:11.726Z,100524.31
2023-04-27T19:12:38.331Z,100523.28
2023-04-27T19:15:05.379Z,100527.50
2023-04-27T19:17:34.897Z,100528.47
2023-04-27T19:20:01.493Z,100529.59
2023-04-27T19:22:29.310Z,100519.13
2023-04-27T19:24:56.062Z,100518.13
2023-04-27T19:27:22.441Z,100513.81
2023-04-27T19:29:53.615Z,100522.13
2023-04-27T19:32:21.187Z,100515.69
2023-04-27T19:34:48.610Z,100517.66
2023-04-27T19:37:17.468Z,100516.25
2023-04-27T19:39:44.010Z,100519.25
2023-04-27T19:42:10.580Z,100518.28
2023-04-27T19:44:39.405Z,100515.19
2023-04-27T19:47:10.759Z,100511.91
2023-04-27T19:49:38.008Z,100514.44
2023-04-27T19:52:05.422Z,100509.44
2023-04-27T19:54:31.833Z,100506.78
2023-04-27T19:56:58.276Z,100520.50
2023-04-27T19:59:24.781Z,100511.28
2023-04-27T20:01:51.312Z,100512.72
2023-04-27T20:04:18.739Z,100510.03
2023-04-27T20:10:45.389Z,100506.94
2023-04-27T20:13:11.979Z,100504.59
2023-04-27T20:22:05.527Z,100499.69
2023-04-27T20:25:28.484Z,100501.63
2023-04-27T20:27:54.848Z,100490.78
2023-04-27T20:30:21.319Z,100495.56
2023-04-27T20:33:44.587Z,100489.19
2023-04-27T20:36:17.176Z,100489.94
2023-04-27T20:38:45.459Z,100493.56
2023-04-27T20:41:30.898Z,100490.84
2023-04-27T20:43:58.503Z,100491.88
2023-04-27T20:46:24.882Z,100498.53
2023-04-27T20:48:51.270Z,100491.59
2023-04-27T20:55:38.172Z,100485.50
2023-04-27T21:01:45.777Z,100484.13
2023-04-27T21:04:50.535Z,100481.47
2023-04-27T21:10:57.978Z,100481.09
2023-04-27T21:13:24.712Z,100485.78
2023-04-27T21:15:51.118Z,100485.19
2023-04-27T21:18:54.904Z,100480.19
2023-04-27T21:21:22.099Z,100469.34
2023-04-27T21:24:08.577Z,100478.00
2023-04-27T21:26:35.078Z,100461.63
2023-04-27T21:29:58.290Z,100459.38
2023-04-27T21:33:02.227Z,100461.00
2023-04-27T21:35:47.296Z,100454.19
2023-04-27T21:38:13.665Z,100448.44
2023-04-27T21:41:18.298Z,100450.81
2023-04-27T21:43:45.020Z,100434.97
2023-04-27T21:46:30.958Z,100434.97
2023-04-27T21:49:16.394Z,100436.97
2023-04-27T21:52:01.541Z,100436.88
2023-04-27T21:54:27.981Z,100431.25
2023-04-27T21:56:54.476Z,100443.78
2023-04-27T21:59:40.401Z,100437.69
2023-04-27T22:02:44.393Z,100431.44
2023-04-27T22:05:29.618Z,100431.69
2023-04-27T22:07:57.755Z,100424.78
2023-04-27T22:10:24.224Z,100429.63
2023-04-27T22:13:19.013Z,100427.25
2023-04-27T22:16:05.030Z,100429.50
2023-04-27T22:19:28.248Z,100430.78
2023-04-27T22:21:54.674Z,100437.69
2023-04-27T22:24:21.165Z,100423.03
2023-04-27T22:26:49.230Z,100433.50
2023-04-27T22:29:16.239Z,100426.53
2023-04-27T22:31:44.310Z,100424.31
2023-04-27T22:34:14.137Z,100431.06
2023-04-27T22:36:41.263Z,100430.06
2023-04-27T22:39:08.155Z,100432.44
2023-04-27T22:41:34.620Z,100435.91
2023-04-27T22:44:01.181Z,100430.41
2023-04-27T22:46:27.817Z,100426.81
2023-04-27T22:48:59.863Z,100426.16
2023-04-27T22:51:27.543Z,100423.22
2023-04-27T22:53:58.950Z,100419.97
2023-04-27T22:56:26.661Z,100423.84
2023-04-27T22:58:55.532Z,100412.16
2023-04-27T23:01:24.292Z,100413.72
2023-04-27T23:03:52.354Z,100413.06
2023-04-27T23:06:18.833Z,100412.97
2023-04-27T23:08:46.943Z,100414.84
2023-04-27T23:11:13.825Z,100411.34
2023-04-27T23:13:40.362Z,100407.72
2023-04-27T23:16:07.055Z,100401.97
2023-04-27T23:18:33.718Z,100396.59
2023-04-27T23:21:00.134Z,100399.47
2023-04-27T23:23:26.636Z,100391.03
2023-04-27T23:25:53.213Z,100378.81
2023-04-27T23:28:20.750Z,100383.69
2023-04-27T23:30:56.119Z,100377.25
2023-04-27T23:33:22.691Z,100381.94
2023-04-27T23:35:49.109Z,100384.59
2023-04-27T23:38:15.492Z,100383.41
2023-04-27T23:40:41.956Z,100375.47
2023-04-27T23:43:13.271Z,100377.25
2023-04-27T23:45:39.668Z,100378.84
2023-04-27T23:48:06.591Z,100379.25
2023-04-27T23:50:35.745Z,100384.16
2023-04-27T23:53:03.292Z,100383.81
2023-04-27T23:55:29.678Z,100398.81
2023-04-27T23:57:56.279Z,100393.69
